Terminal Aerodrome Forecast
Issued by NWS

Home | Current Version | Previous Version | Text Only | Print | Product List | Glossary Off
Versions: 1 2 3 4 5 6 7 8 9 10 11 12 13 14 15 16 17 18 19

000
FTUS43 KGRB 252024 AAA
TAFAUW
TAF AMD
KAUW 252024Z 2520/2618 11010G17KT P6SM SCT025 SCT090 BKN200
     FM252100 11009KT 6SM -SHRA SCT035 OVC070
      TEMPO 2522/2602 23018G30KT 2SM +TSRA BKN025 OVC040CB
     FM260400 15005KT 3SM BR BKN005 BKN010
     FM261500 22008KT P6SM BKN018=

USA.gov is the U.S. government's official web portal to all federal, state and local government web resources and services.